createdAt,value
2019-02-20T00:00:36.343Z,5.30
2019-02-20T00:03:09.038Z,5.40
2019-02-20T00:05:41.154Z,5.40
2019-02-20T00:08:12.414Z,5.30
2019-02-20T00:10:44.530Z,5.30
2019-02-20T00:13:15.648Z,5.30
2019-02-20T00:15:46.877Z,5.30
2019-02-20T00:18:21.580Z,5.40
2019-02-20T00:20:52.853Z,5.30
2019-02-20T00:23:25.364Z,5.30
2019-02-20T00:25:56.667Z,5.40
2019-02-20T00:28:27.814Z,5.30
2019-02-20T00:30:59.039Z,5.30
2019-02-20T00:33:30.244Z,5.30
2019-02-20T00:36:02.937Z,5.40
2019-02-20T00:38:34.040Z,5.30
2019-02-20T00:41:05.248Z,5.20
2019-02-20T00:43:36.382Z,5.20
2019-02-20T00:46:17.948Z,5.20
2019-02-20T00:48:56.405Z,5.20
2019-02-20T00:51:38.328Z,5.20
2019-02-20T00:54:09.688Z,5.20
2019-02-20T00:56:42.521Z,5.20
2019-02-20T00:59:13.552Z,5.10
2019-02-20T01:01:44.626Z,5.00
2019-02-20T01:04:15.667Z,4.90
2019-02-20T01:06:46.760Z,4.80
2019-02-20T01:09:17.894Z,4.90
2019-02-20T01:11:48.973Z,4.80
2019-02-20T01:14:20.063Z,4.80
2019-02-20T01:16:51.103Z,4.70
2019-02-20T01:19:22.113Z,4.80
2019-02-20T01:21:53.214Z,4.80
2019-02-20T01:24:24.291Z,4.80
2019-02-20T01:26:55.329Z,4.80
2019-02-20T01:29:26.400Z,4.80
2019-02-20T01:31:57.448Z,4.90
2019-02-20T01:34:28.526Z,4.90
2019-02-20T01:36:59.569Z,5.00
2019-02-20T01:39:30.640Z,5.00
2019-02-20T01:42:01.711Z,5.00
2019-02-20T01:44:32.836Z,4.90
2019-02-20T01:47:03.874Z,4.80
2019-02-20T01:49:34.943Z,4.70
2019-02-20T01:52:05.983Z,4.70
2019-02-20T01:54:37.128Z,4.70
2019-02-20T01:57:08.223Z,4.80
2019-02-20T01:59:39.371Z,4.90
2019-02-20T02:02:11.423Z,5.10
2019-02-20T02:04:42.456Z,5.20
2019-02-20T02:07:13.520Z,4.90
2019-02-20T02:09:44.560Z,4.80
2019-02-20T02:12:15.643Z,4.70
2019-02-20T02:14:46.690Z,4.70
2019-02-20T02:17:18.171Z,4.60
2019-02-20T02:19:49.207Z,4.70
2019-02-20T02:22:20.310Z,4.60
2019-02-20T02:24:52.355Z,4.50
2019-02-20T02:27:23.419Z,4.50
2019-02-20T02:29:54.457Z,4.50
2019-02-20T02:32:25.528Z,4.40
2019-02-20T02:34:56.569Z,4.30
2019-02-20T02:37:27.648Z,4.30
2019-02-20T02:39:59.685Z,4.30
2019-02-20T02:42:30.763Z,4.40
2019-02-20T02:45:01.824Z,4.50
2019-02-20T02:47:33.971Z,4.50
2019-02-20T02:50:06.666Z,4.40
2019-02-20T02:52:37.735Z,4.40
2019-02-20T02:55:08.776Z,4.40
2019-02-20T02:57:39.846Z,4.50
2019-02-20T03:00:12.013Z,4.60
2019-02-20T03:02:43.093Z,4.50
2019-02-20T03:05:14.152Z,4.50
2019-02-20T03:07:45.190Z,4.50
2019-02-20T03:10:16.270Z,4.60
2019-02-20T03:12:47.448Z,4.60
2019-02-20T03:15:18.520Z,4.60
2019-02-20T03:17:49.561Z,4.50
2019-02-20T03:20:20.635Z,4.40
2019-02-20T03:22:51.681Z,4.50
2019-02-20T03:25:22.752Z,4.70
2019-02-20T03:27:53.789Z,4.60
2019-02-20T03:30:24.867Z,4.50
2019-02-20T03:32:55.981Z,4.40
2019-02-20T03:35:27.059Z,4.40
2019-02-20T03:37:58.087Z,4.40
2019-02-20T03:40:29.158Z,4.50
2019-02-20T03:43:00.219Z,4.50
2019-02-20T03:45:31.349Z,4.40
2019-02-20T03:48:02.458Z,4.40
2019-02-20T03:50:33.539Z,4.40
2019-02-20T03:53:04.614Z,4.40
2019-02-20T03:55:35.655Z,4.40
2019-02-20T03:58:06.710Z,4.30
2019-02-20T04:00:37.755Z,4.30
2019-02-20T04:03:08.828Z,4.30
2019-02-20T04:05:39.893Z,4.30
2019-02-20T04:08:10.996Z,4.50
2019-02-20T04:10:42.042Z,4.50
2019-02-20T04:13:13.113Z,4.40
2019-02-20T04:15:44.153Z,4.40
2019-02-20T04:18:15.219Z,4.50
2019-02-20T04:20:46.261Z,4.50
2019-02-20T04:23:17.341Z,4.50
2019-02-20T04:25:48.382Z,4.50
2019-02-20T04:28:19.455Z,4.70
2019-02-20T04:30:50.493Z,4.70
2019-02-20T04:33:21.588Z,4.60
2019-02-20T04:35:53.076Z,4.40
2019-02-20T04:38:24.874Z,4.40
2019-02-20T04:40:55.924Z,4.30
2019-02-20T04:43:26.991Z,4.30
2019-02-20T04:45:58.063Z,4.60
2019-02-20T04:48:29.137Z,4.70
2019-02-20T04:51:00.212Z,4.70
2019-02-20T04:53:31.317Z,4.80
2019-02-20T04:56:02.390Z,4.90
2019-02-20T04:58:33.427Z,4.70
2019-02-20T05:01:04.552Z,4.40
2019-02-20T05:03:35.592Z,4.10
2019-02-20T05:06:06.666Z,3.90
2019-02-20T05:08:37.722Z,3.90
2019-02-20T05:11:08.796Z,4.10
2019-02-20T05:13:39.837Z,4.20
2019-02-20T05:16:10.911Z,4.00
2019-02-20T05:18:41.950Z,3.90
2019-02-20T05:21:13.029Z,3.90
2019-02-20T05:23:44.073Z,3.70
2019-02-20T05:26:15.135Z,3.50
2019-02-20T05:28:46.171Z,3.30
2019-02-20T05:31:17.244Z,3.30
2019-02-20T05:33:49.279Z,3.40
2019-02-20T05:36:20.350Z,3.30
2019-02-20T05:38:51.504Z,3.20
2019-02-20T05:41:22.550Z,3.30
2019-02-20T05:43:53.624Z,3.20
2019-02-20T05:46:24.667Z,3.00
2019-02-20T05:48:55.743Z,2.90
2019-02-20T05:51:26.788Z,2.90
2019-02-20T05:53:57.853Z,3.00
2019-02-20T05:56:28.895Z,3.10
2019-02-20T05:58:59.961Z,3.20
2019-02-20T06:01:31.015Z,3.50
2019-02-20T06:04:02.089Z,3.70
2019-02-20T06:06:33.132Z,3.80
2019-02-20T06:09:05.106Z,4.00
2019-02-20T06:11:36.441Z,4.10
2019-02-20T06:14:08.516Z,3.90
2019-02-20T06:16:39.573Z,3.70
2019-02-20T06:19:10.650Z,3.70
2019-02-20T06:21:41.684Z,3.60
2019-02-20T06:24:12.759Z,3.60
2019-02-20T06:26:43.804Z,3.60
2019-02-20T06:29:14.875Z,3.60
2019-02-20T06:31:45.957Z,3.80
2019-02-20T06:34:16.990Z,4.00
2019-02-20T06:36:48.068Z,4.10
2019-02-20T06:39:19.122Z,4.20
2019-02-20T06:41:50.257Z,4.30
2019-02-20T06:44:21.338Z,4.30
2019-02-20T06:46:52.410Z,4.40
2019-02-20T06:49:23.443Z,4.40
2019-02-20T06:51:54.442Z,4.50
2019-02-20T06:54:25.483Z,4.40
2019-02-20T06:56:56.545Z,4.30
2019-02-20T06:59:27.576Z,4.40
2019-02-20T07:01:58.645Z,4.50
2019-02-20T07:04:29.685Z,4.60
2019-02-20T07:07:05.269Z,4.60
2019-02-20T07:09:58.768Z,4.60
2019-02-20T07:12:42.929Z,4.80
2019-02-20T07:15:36.049Z,4.80
2019-02-20T07:18:27.108Z,4.70
2019-02-20T07:21:32.297Z,4.70
2019-02-20T07:24:10.445Z,4.80
2019-02-20T07:27:06.404Z,5.00
2019-02-20T07:29:46.886Z,5.20
2019-02-20T07:32:18.939Z,5.20
2019-02-20T07:34:50.121Z,5.20
2019-02-20T07:37:21.187Z,5.50
2019-02-20T07:39:52.277Z,5.80
2019-02-20T07:42:23.322Z,6.10
2019-02-20T07:44:54.385Z,6.20
2019-02-20T07:47:25.447Z,6.10
2019-02-20T07:49:56.514Z,6.10
2019-02-20T07:52:27.570Z,6.00
2019-02-20T07:54:59.608Z,5.90
2019-02-20T07:57:30.669Z,5.80
2019-02-20T08:00:01.716Z,5.70
2019-02-20T08:02:34.646Z,5.60
2019-02-20T08:05:06.382Z,5.60
2019-02-20T08:07:37.447Z,5.80
2019-02-20T08:10:11.547Z,6.10
2019-02-20T08:12:42.608Z,6.30
2019-02-20T08:15:13.646Z,6.10
2019-02-20T08:17:44.713Z,5.90
2019-02-20T08:20:15.750Z,6.00
2019-02-20T08:22:46.820Z,6.10
2019-02-20T08:25:22.962Z,6.20
2019-02-20T08:27:50.682Z,6.30
2019-02-20T08:30:21.720Z,6.40
2019-02-20T08:32:52.783Z,6.50
2019-02-20T08:35:23.829Z,6.80
2019-02-20T08:37:54.888Z,6.80
2019-02-20T08:40:25.923Z,6.80
2019-02-20T08:42:57.002Z,6.80
2019-02-20T08:45:28.061Z,6.80
2019-02-20T08:47:59.521Z,6.80
2019-02-20T08:50:30.593Z,6.80
2019-02-20T08:53:01.670Z,6.80
2019-02-20T08:55:32.739Z,6.90
2019-02-20T08:58:03.894Z,6.90
2019-02-20T09:00:35.024Z,7.20
2019-02-20T09:03:06.059Z,7.20
2019-02-20T09:05:37.123Z,7.50
2019-02-20T09:08:08.155Z,7.50
2019-02-20T09:10:39.310Z,7.70
2019-02-20T09:13:10.344Z,7.90
2019-02-20T09:15:41.412Z,8.20
2019-02-20T09:18:12.443Z,8.20
2019-02-20T09:20:43.509Z,8.10
2019-02-20T09:23:14.546Z,8.00
2019-02-20T09:25:45.618Z,8.10
2019-02-20T09:28:16.649Z,8.30
2019-02-20T09:30:47.715Z,8.70
2019-02-20T09:33:18.777Z,8.90
2019-02-20T09:35:49.818Z,9.10
2019-02-20T09:38:20.878Z,9.50
2019-02-20T09:40:51.916Z,9.70
2019-02-20T09:43:23.082Z,9.40
2019-02-20T09:45:54.112Z,9.50
2019-02-20T09:48:26.720Z,9.80
2019-02-20T09:50:57.797Z,9.90
2019-02-20T09:53:28.856Z,9.80
2019-02-20T09:56:00.897Z,10.00
2019-02-20T09:58:31.968Z,10.40
2019-02-20T10:01:03.146Z,10.80
2019-02-20T10:03:34.418Z,11.10
2019-02-20T10:06:05.505Z,11.20
2019-02-20T10:08:36.587Z,11.30
2019-02-20T10:11:07.637Z,11.40
2019-02-20T10:13:38.797Z,11.20
2019-02-20T10:16:09.906Z,11.40
2019-02-20T10:18:41.051Z,11.50
2019-02-20T10:21:12.135Z,11.40
2019-02-20T10:23:45.203Z,10.90
2019-02-20T10:26:16.099Z,11.10
2019-02-20T10:28:47.251Z,11.20
2019-02-20T10:31:18.342Z,11.20
2019-02-20T10:33:49.383Z,11.10
2019-02-20T10:36:20.464Z,11.60
2019-02-20T10:38:51.504Z,12.20
2019-02-20T10:41:22.583Z,12.70
2019-02-20T10:43:53.628Z,13.00
2019-02-20T10:46:24.700Z,13.10
2019-02-20T10:48:55.762Z,12.60
2019-02-20T10:51:28.455Z,12.50
2019-02-20T10:54:00.516Z,12.50
2019-02-20T10:56:31.631Z,12.70
2019-02-20T10:59:02.711Z,13.80
2019-02-20T11:01:33.788Z,15.90
2019-02-20T11:04:04.836Z,18.30
2019-02-20T11:06:35.990Z,19.20
2019-02-20T11:09:08.229Z,19.60
2019-02-20T11:11:39.377Z,19.60
2019-02-20T11:14:10.446Z,19.20
2019-02-20T11:16:41.529Z,19.10
2019-02-20T11:19:12.628Z,18.10
2019-02-20T11:21:43.972Z,17.60
2019-02-20T11:24:15.053Z,16.80
2019-02-20T11:26:53.186Z,16.00
2019-02-20T11:29:18.930Z,15.20
2019-02-20T11:31:50.007Z,14.80
2019-02-20T11:34:21.205Z,14.70
2019-02-20T11:36:52.264Z,14.40
2019-02-20T11:39:23.346Z,14.00
2019-02-20T11:41:54.397Z,13.80
2019-02-20T11:44:25.469Z,13.80
2019-02-20T11:46:56.589Z,13.90
2019-02-20T11:49:27.672Z,13.90
2019-02-20T11:51:58.721Z,13.70
2019-02-20T11:54:29.797Z,13.70
2019-02-20T11:57:00.849Z,14.00
2019-02-20T11:59:31.936Z,14.00
2019-02-20T12:02:03.048Z,14.10
2019-02-20T12:04:34.126Z,14.00
2019-02-20T12:07:05.176Z,13.70
2019-02-20T12:09:36.259Z,13.30
2019-02-20T12:12:07.349Z,12.90
2019-02-20T12:14:38.400Z,12.50
2019-02-20T12:17:09.475Z,12.50
2019-02-20T12:19:40.521Z,12.50
2019-02-20T12:22:11.605Z,12.30
2019-02-20T12:24:42.652Z,12.40
2019-02-20T12:27:13.734Z,12.10
2019-02-20T12:29:44.784Z,12.20
2019-02-20T12:32:15.885Z,12.20
2019-02-20T12:34:46.938Z,12.10
2019-02-20T12:37:18.042Z,12.30
2019-02-20T12:39:50.181Z,12.30
2019-02-20T12:42:21.259Z,12.10
2019-02-20T12:44:52.302Z,12.00
2019-02-20T12:47:23.381Z,11.80
2019-02-20T12:49:54.430Z,11.70
2019-02-20T12:52:26.551Z,11.90
2019-02-20T12:54:57.629Z,12.30
2019-02-20T12:57:28.635Z,12.40
2019-02-20T12:59:59.715Z,12.50
2019-02-20T13:02:30.762Z,12.40
2019-02-20T13:05:01.841Z,12.40
2019-02-20T13:07:33.238Z,12.80
2019-02-20T13:10:04.529Z,13.10
2019-02-20T13:12:35.582Z,13.10
2019-02-20T13:15:12.000Z,13.20
2019-02-20T13:17:43.058Z,13.30
2019-02-20T13:20:15.171Z,13.40
2019-02-20T13:22:46.211Z,13.70
2019-02-20T13:25:17.295Z,14.20
2019-02-20T13:27:48.337Z,14.60
2019-02-20T13:30:19.421Z,15.30
2019-02-20T13:32:51.040Z,15.90
2019-02-20T13:35:22.222Z,15.70
2019-02-20T13:37:53.278Z,15.60
2019-02-20T13:40:24.359Z,15.30
2019-02-20T13:42:55.483Z,15.10
2019-02-20T13:45:26.637Z,15.20
2019-02-20T13:47:57.678Z,15.10
2019-02-20T13:50:29.047Z,15.30
2019-02-20T13:53:01.199Z,15.60
2019-02-20T13:55:34.540Z,15.60
2019-02-20T13:58:05.028Z,15.70
2019-02-20T14:00:36.281Z,15.40
2019-02-20T14:03:07.741Z,15.30
2019-02-20T14:05:38.869Z,15.60
2019-02-20T14:08:10.065Z,15.60
2019-02-20T14:10:41.119Z,16.10
2019-02-20T14:13:12.161Z,16.80
2019-02-20T14:15:45.614Z,17.20
2019-02-20T14:18:16.797Z,17.00
2019-02-20T14:20:47.890Z,17.10
2019-02-20T14:23:18.936Z,16.90
2019-02-20T14:25:49.991Z,16.60
2019-02-20T14:28:21.205Z,16.30
2019-02-20T14:30:52.260Z,15.70
2019-02-20T14:33:23.340Z,15.20
2019-02-20T14:35:54.391Z,15.00
2019-02-20T14:38:27.051Z,15.40
2019-02-20T14:40:58.198Z,16.20
2019-02-20T14:43:29.462Z,16.60
2019-02-20T14:46:00.540Z,17.00
2019-02-20T14:48:31.591Z,17.00
2019-02-20T14:51:02.733Z,16.50
2019-02-20T14:53:33.796Z,15.90
2019-02-20T14:56:05.357Z,15.60
2019-02-20T14:58:36.485Z,15.50
2019-02-20T15:01:07.773Z,15.50
2019-02-20T15:03:38.901Z,15.60
2019-02-20T15:06:10.073Z,15.80
2019-02-20T15:08:41.194Z,16.30
2019-02-20T15:11:12.273Z,17.00
2019-02-20T15:13:43.427Z,17.70
2019-02-20T15:16:14.526Z,17.60
2019-02-20T15:18:45.633Z,17.20
2019-02-20T15:21:16.771Z,16.70
2019-02-20T15:23:47.997Z,16.10
2019-02-20T15:26:19.071Z,15.60
2019-02-20T15:28:50.120Z,15.00
2019-02-20T15:31:21.453Z,13.90
2019-02-20T15:33:53.566Z,13.00
2019-02-20T15:36:24.882Z,12.00
2019-02-20T15:38:55.959Z,11.60
2019-02-20T15:41:27.111Z,11.50
2019-02-20T15:43:58.239Z,11.60
2019-02-20T15:46:29.393Z,11.80
2019-02-20T15:49:00.469Z,12.10
2019-02-20T15:51:31.522Z,12.20
2019-02-20T15:54:02.727Z,12.10
2019-02-20T15:56:33.819Z,11.90
2019-02-20T15:59:06.068Z,11.70
2019-02-20T16:01:37.189Z,11.70
2019-02-20T16:04:08.547Z,11.70
2019-02-20T16:06:39.664Z,11.60
2019-02-20T16:09:11.191Z,11.50
2019-02-20T16:11:43.046Z,11.30
2019-02-20T16:14:14.141Z,11.20
2019-02-20T16:16:45.668Z,11.10
2019-02-20T16:19:16.842Z,11.00
2019-02-20T16:21:47.957Z,10.80
2019-02-20T16:24:19.133Z,10.60
2019-02-20T16:26:50.204Z,10.50
2019-02-20T16:29:21.316Z,10.50
2019-02-20T16:31:52.385Z,10.50
2019-02-20T16:34:23.511Z,10.40
2019-02-20T16:36:54.581Z,10.30
2019-02-20T16:39:25.691Z,10.10
2019-02-20T16:41:56.805Z,10.00
2019-02-20T16:44:28.129Z,10.10
2019-02-20T16:46:59.199Z,10.20
2019-02-20T16:49:30.254Z,10.10
2019-02-20T16:52:01.400Z,10.00
2019-02-20T16:54:33.435Z,9.80
2019-02-20T16:57:04.503Z,9.50
2019-02-20T16:59:35.537Z,9.10
2019-02-20T17:02:06.704Z,8.80
2019-02-20T17:04:39.521Z,8.60
2019-02-20T17:07:10.659Z,8.60
2019-02-20T17:09:41.794Z,8.50
2019-02-20T17:12:12.833Z,8.40
2019-02-20T17:14:43.906Z,8.30
2019-02-20T17:17:15.051Z,8.10
2019-02-20T17:19:46.123Z,8.20
2019-02-20T17:22:17.230Z,8.40
2019-02-20T17:24:48.480Z,8.50
2019-02-20T17:27:19.602Z,8.40
2019-02-20T17:29:50.742Z,8.20
2019-02-20T17:32:21.858Z,8.00
2019-02-20T17:34:52.924Z,8.00
2019-02-20T17:37:24.376Z,8.00
2019-02-20T17:39:55.439Z,7.90
2019-02-20T17:42:26.550Z,7.80
2019-02-20T17:44:57.625Z,7.70
2019-02-20T17:47:28.692Z,7.60
2019-02-20T17:49:59.760Z,7.40
2019-02-20T17:52:30.797Z,7.50
2019-02-20T17:55:01.885Z,7.40
2019-02-20T17:57:33.597Z,7.30
2019-02-20T18:00:07.004Z,7.20
2019-02-20T18:02:38.515Z,7.30
2019-02-20T18:05:10.085Z,7.20
2019-02-20T18:07:48.843Z,7.20
2019-02-20T18:10:13.914Z,7.40
2019-02-20T18:12:45.004Z,7.50
2019-02-20T18:15:16.029Z,7.70
2019-02-20T18:17:47.135Z,7.70
2019-02-20T18:20:18.176Z,7.40
2019-02-20T18:22:49.244Z,7.20
2019-02-20T18:25:20.279Z,7.00
2019-02-20T18:27:51.359Z,7.10
2019-02-20T18:30:22.408Z,7.20
2019-02-20T18:32:53.580Z,7.20
2019-02-20T18:35:24.633Z,7.20
2019-02-20T18:37:55.775Z,7.20
2019-02-20T18:40:26.812Z,7.00
2019-02-20T18:42:58.761Z,6.90
2019-02-20T18:45:29.846Z,6.90
2019-02-20T18:48:00.921Z,6.80
2019-02-20T18:50:31.954Z,6.60
2019-02-20T18:53:03.019Z,6.50
2019-02-20T18:55:34.141Z,6.40
2019-02-20T18:58:05.213Z,6.30
2019-02-20T19:00:36.428Z,6.30
2019-02-20T19:03:07.646Z,6.20
2019-02-20T19:05:38.794Z,6.10
2019-02-20T19:08:41.439Z,6.10
2019-02-20T19:11:37.849Z,6.00
2019-02-20T19:14:19.223Z,5.90
2019-02-20T19:17:15.469Z,5.90
2019-02-20T19:20:03.013Z,5.90
2019-02-20T19:23:11.279Z,5.90
2019-02-20T19:26:15.264Z,5.90
2019-02-20T19:29:29.833Z,5.90
2019-02-20T19:32:26.214Z,5.70
2019-02-20T19:35:12.745Z,5.50
2019-02-20T19:38:11.529Z,5.50
2019-02-20T19:40:55.807Z,5.40
2019-02-20T19:43:33.962Z,5.30
2019-02-20T19:46:40.139Z,5.30
2019-02-20T19:49:18.410Z,5.30
2019-02-20T19:52:20.998Z,5.20
2019-02-20T19:55:15.688Z,5.20
2019-02-20T19:58:00.093Z,5.10
2019-02-20T20:00:47.529Z,5.10
2019-02-20T20:03:32.203Z,4.90
2019-02-20T20:06:32.531Z,4.80
2019-02-20T20:09:19.696Z,4.70
2019-02-20T20:12:25.271Z,4.70
2019-02-20T20:15:15.794Z,4.60
2019-02-20T20:18:20.949Z,4.40
2019-02-20T20:21:30.947Z,4.20
2019-02-20T20:24:34.621Z,4.00
2019-02-20T20:27:20.546Z,4.00
2019-02-20T20:30:15.261Z,3.90
2019-02-20T20:33:02.677Z,3.80
2019-02-20T20:35:41.131Z,3.60
2019-02-20T20:38:19.487Z,3.50
2019-02-20T20:41:37.934Z,3.40
2019-02-20T20:44:40.392Z,3.40
2019-02-20T20:47:21.465Z,3.30
2019-02-20T20:49:59.573Z,3.20
2019-02-20T20:53:20.644Z,3.10
2019-02-20T20:56:08.549Z,3.10
2019-02-20T20:58:55.600Z,3.00
2019-02-20T21:01:46.406Z,2.90
2019-02-20T21:04:53.194Z,2.90
2019-02-20T21:07:34.395Z,2.80
2019-02-20T21:10:15.484Z,2.70
2019-02-20T21:13:23.691Z,2.80
2019-02-20T21:16:18.556Z,2.80
2019-02-20T21:19:28.405Z,2.70
2019-02-20T21:22:03.956Z,2.70
2019-02-20T21:24:48.339Z,2.70
2019-02-20T21:27:26.812Z,2.60
2019-02-20T21:30:26.214Z,2.50
2019-02-20T21:33:52.461Z,2.40
2019-02-20T21:36:29.301Z,2.20
2019-02-20T21:39:23.989Z,2.30
2019-02-20T21:42:02.085Z,2.30
2019-02-20T21:44:47.343Z,2.20
2019-02-20T21:47:40.539Z,2.10
2019-02-20T21:50:18.850Z,2.00
2019-02-20T21:53:10.296Z,1.90
2019-02-20T21:56:14.228Z,1.80
2019-02-20T21:59:18.527Z,1.70
2019-02-20T22:02:02.928Z,1.60
2019-02-20T22:05:05.329Z,1.60
2019-02-20T22:08:04.527Z,1.60
2019-02-20T22:11:15.741Z,1.70
2019-02-20T22:14:22.070Z,1.60
2019-02-20T22:17:15.612Z,1.60
2019-02-20T22:20:09.215Z,1.70
2019-02-20T22:22:44.758Z,1.70
2019-02-20T22:25:47.098Z,1.80
2019-02-20T22:28:43.582Z,1.80
2019-02-20T22:31:42.550Z,1.90
2019-02-20T22:34:32.541Z,1.90
2019-02-20T22:37:37.984Z,1.70
2019-02-20T22:40:21.993Z,1.70
2019-02-20T22:43:36.095Z,1.60
2019-02-20T22:46:20.276Z,1.50
2019-02-20T22:49:22.745Z,1.40
2019-02-20T22:52:15.756Z,1.40
2019-02-20T22:55:10.291Z,1.40
2019-02-20T22:57:54.564Z,1.50
2019-02-20T23:01:07.581Z,1.50
2019-02-20T23:03:47.625Z,1.40
2019-02-20T23:06:40.682Z,1.50
2019-02-20T23:09:36.857Z,1.50
2019-02-20T23:12:12.439Z,1.50
2019-02-20T23:14:58.758Z,1.60
2019-02-20T23:17:30.180Z,1.50
2019-02-20T23:20:01.243Z,1.60
2019-02-20T23:22:32.522Z,1.80
2019-02-20T23:25:03.563Z,1.90
2019-02-20T23:27:34.634Z,1.80
2019-02-20T23:30:13.106Z,1.80
2019-02-20T23:32:44.422Z,1.80
2019-02-20T23:35:15.500Z,1.80
2019-02-20T23:37:46.499Z,1.90
2019-02-20T23:40:17.570Z,1.90
2019-02-20T23:42:49.202Z,2.00
2019-02-20T23:45:20.391Z,2.00
2019-02-20T23:47:51.435Z,2.00
2019-02-20T23:50:22.523Z,2.10
2019-02-20T23:52:53.674Z,2.20
2019-02-20T23:55:24.679Z,2.20
2019-02-20T23:57:55.738Z,2.20
